Time;durP1;ratioP1;P1;durP2;ratioP2;P2;SDS_P1;SDS_P2;PMS_P1;PMS_P2;Temp;Humidity;BMP_temperature;BMP_pressure;BME280_temperature;BME280_humidity;BME280_pressure;Samples;Min_cycle;Max_cycle;Signal;HPM_P1;HPM_P2
2023/04/12 00:02:07;;;;;;;0.47;0.47;;;5.50;99.90;;;;;;4403464;32;20082;-75
2023/04/12 00:04:34;;;;;;;0.50;0.50;;;5.60;99.90;;;;;;4400597;32;20082;-75
2023/04/12 00:07:01;;;;;;;1.10;0.75;;;5.50;99.90;;;;;;4401080;32;20517;-77
2023/04/12 00:09:29;;;;;;;0.40;0.40;;;5.50;99.90;;;;;;4401089;32;20095;-77
2023/04/12 00:11:57;;;;;;;0.28;0.28;;;5.50;99.90;;;;;;4402494;32;20086;-77
2023/04/12 00:14:23;;;;;;;0.93;0.43;;;5.50;99.90;;;;;;4403709;32;20061;-77
2023/04/12 00:16:49;;;;;;;1.02;0.85;;;5.50;99.90;;;;;;4403204;32;20104;-77
2023/04/12 00:19:15;;;;;;;0.22;0.22;;;5.50;99.90;;;;;;4398321;32;20132;-77
2023/04/12 00:21:43;;;;;;;1.55;0.70;;;5.50;99.90;;;;;;4402114;32;20102;-77
2023/04/12 00:24:09;;;;;;;2.28;1.60;;;5.50;99.90;;;;;;4401308;32;20489;-77
2023/04/12 00:26:34;;;;;;;0.65;0.65;;;5.50;99.90;;;;;;4401925;32;20090;-77
2023/04/12 00:29:00;;;;;;;0.30;0.30;;;5.50;99.90;;;;;;4405017;32;20081;-77
2023/04/12 00:31:26;;;;;;;0.40;0.40;;;5.40;99.90;;;;;;4402312;32;20078;-77
2023/04/12 00:33:51;;;;;;;0.52;0.52;;;5.20;99.90;;;;;;4399754;32;20062;-77
2023/04/12 00:36:17;;;;;;;0.57;0.57;;;5.10;99.90;;;;;;4400446;32;20578;-77
2023/04/12 00:38:44;;;;;;;0.30;0.30;;;5.20;99.90;;;;;;4399413;32;20133;-77
2023/04/12 00:41:10;;;;;;;0.45;0.45;;;5.20;99.90;;;;;;4401485;32;20129;-77
2023/04/12 00:43:36;;;;;;;0.40;0.40;;;5.20;99.90;;;;;;4399574;32;20510;-77
2023/04/12 00:46:02;;;;;;;0.30;0.30;;;5.30;99.90;;;;;;4402048;32;20102;-77
2023/04/12 00:48:28;;;;;;;0.40;0.40;;;5.40;99.90;;;;;;4402871;32;20066;-77
2023/04/12 00:50:56;;;;;;;0.40;0.40;;;5.30;99.90;;;;;;4401052;32;20075;-77
2023/04/12 00:53:22;;;;;;;0.30;0.30;;;5.40;99.90;;;;;;4402614;32;20608;-77
2023/04/12 00:55:49;;;;;;;0.93;0.82;;;5.40;99.90;;;;;;4401253;32;20065;-78
2023/04/12 00:58:15;;;;;;;0.62;0.62;;;5.40;99.90;;;;;;4401220;32;20070;-77
2023/04/12 01:00:48;;;;;;;0.55;0.55;;;5.50;99.90;;;;;;4402823;32;20532;-77
2023/04/12 01:03:21;;;;;;;1.87;1.30;;;5.50;99.90;;;;;;4403143;32;20529;-77
2023/04/12 01:05:56;;;;;;;0.20;0.20;;;5.40;99.90;;;;;;4399577;32;20147;-77
2023/04/12 01:08:32;;;;;;;0.50;0.43;;;5.40;99.90;;;;;;4400980;32;20087;-77
2023/04/12 01:11:11;;;;;;;0.30;0.30;;;5.20;99.90;;;;;;4399177;32;20078;-77
2023/04/12 01:13:44;;;;;;;0.30;0.30;;;5.20;99.90;;;;;;4403010;32;20542;-77
2023/04/12 01:16:28;;;;;;;0.30;0.30;;;5.10;99.90;;;;;;4402126;32;20533;-77
2023/04/12 01:19:02;;;;;;;0.30;0.30;;;4.90;99.90;;;;;;4402225;32;20094;-77
2023/04/12 01:21:50;;;;;;;0.30;0.30;;;4.80;99.90;;;;;;4399838;32;20065;-77
2023/04/12 01:24:35;;;;;;;0.50;0.50;;;4.60;99.90;;;;;;4390962;32;20074;-75
2023/04/12 01:27:02;;;;;;;0.40;0.40;;;4.60;99.90;;;;;;4402876;32;20539;-76
2023/04/12 01:29:29;;;;;;;0.32;0.32;;;4.50;99.90;;;;;;4398672;32;20089;-78
2023/04/12 01:32:00;;;;;;;0.35;0.35;;;4.50;99.90;;;;;;4404443;32;20102;-77
2023/04/12 01:34:28;;;;;;;2.08;1.25;;;4.60;99.90;;;;;;4401327;32;20134;-76
2023/04/12 01:36:56;;;;;;;0.30;0.30;;;4.70;99.90;;;;;;4407124;32;20065;-77
2023/04/12 01:39:21;;;;;;;30.88;0.82;;;4.70;99.90;;;;;;4404147;32;20561;-78
2023/04/12 01:41:47;;;;;;;0.30;0.30;;;4.60;99.90;;;;;;4404189;32;20131;-78
2023/04/12 01:44:15;;;;;;;0.70;0.60;;;4.50;99.90;;;;;;4404201;32;20065;-75
2023/04/12 01:46:43;;;;;;;0.37;0.37;;;4.50;99.90;;;;;;4405395;32;20105;-77
2023/04/12 01:49:11;;;;;;;0.30;0.30;;;4.60;99.90;;;;;;4406897;32;20411;-77
2023/04/12 01:52:00;;;;;;;0.30;0.30;;;4.60;99.90;;;;;;4405795;32;20534;-77
2023/04/12 01:54:30;;;;;;;0.30;0.30;;;4.60;99.90;;;;;;4392818;32;20141;-77
2023/04/12 01:56:58;;;;;;;0.30;0.30;;;4.60;99.90;;;;;;4403046;32;20073;-77
2023/04/12 01:59:29;;;;;;;0.40;0.40;;;4.50;99.90;;;;;;4402118;32;20151;-78
2023/04/12 02:01:54;;;;;;;;;;;4.60;99.90;;;;;;4404462;32;20514;-77
2023/04/12 02:04:21;;;;;;;0.30;0.30;;;4.60;99.90;;;;;;4403825;32;19965;-77
2023/04/12 02:06:47;;;;;;;0.30;0.30;;;4.70;99.90;;;;;;4403214;32;20510;-77
2023/04/12 02:09:12;;;;;;;4.57;2.05;;;4.80;99.90;;;;;;4401741;32;20078;-77
2023/04/12 02:11:38;;;;;;;0.30;0.30;;;4.70;99.90;;;;;;4406144;32;20058;-77
2023/04/12 02:14:03;;;;;;;0.40;0.40;;;4.40;99.90;;;;;;4401006;32;20098;-77
2023/04/12 02:16:31;;;;;;;0.52;0.52;;;4.20;99.90;;;;;;4403908;32;20070;-77
2023/04/12 02:18:57;;;;;;;21.52;0.88;;;4.10;99.90;;;;;;4399701;32;20094;-77
2023/04/12 02:21:23;;;;;;;0.30;0.30;;;4.10;99.90;;;;;;4405677;32;20057;-77
2023/04/12 02:23:50;;;;;;;0.30;0.30;;;4.00;99.90;;;;;;4403171;32;20104;-77
2023/04/12 02:26:15;;;;;;;0.50;0.50;;;4.20;99.90;;;;;;4400804;32;20057;-77
2023/04/12 02:28:43;;;;;;;0.88;0.88;;;4.20;99.90;;;;;;4401009;32;20092;-77
2023/04/12 02:31:08;;;;;;;0.45;0.45;;;4.10;99.90;;;;;;4402135;32;20093;-77
2023/04/12 02:33:34;;;;;;;0.20;0.20;;;4.00;99.90;;;;;;4404832;32;20237;-77
2023/04/12 02:36:01;;;;;;;0.30;0.30;;;3.90;99.90;;;;;;4405154;32;20073;-77
2023/04/12 02:38:27;;;;;;;0.30;0.30;;;3.70;99.90;;;;;;4402391;32;20057;-77
2023/04/12 02:40:53;;;;;;;0.37;0.37;;;3.70;99.90;;;;;;4402202;32;20428;-77
2023/04/12 02:43:18;;;;;;;0.30;0.30;;;3.70;99.90;;;;;;4402469;32;20054;-77
2023/04/12 02:45:45;;;;;;;8.98;0.90;;;3.60;99.90;;;;;;4401646;32;20133;-78
2023/04/12 02:48:11;;;;;;;0.30;0.30;;;3.60;99.90;;;;;;4401816;32;20084;-77
2023/04/12 02:50:37;;;;;;;0.20;0.20;;;3.60;99.90;;;;;;4402736;32;20125;-77
2023/04/12 02:53:03;;;;;;;0.40;0.40;;;3.60;99.90;;;;;;4404616;32;20085;-77
2023/04/12 02:55:29;;;;;;;0.40;0.40;;;3.50;99.90;;;;;;4401140;32;20603;-77
2023/04/12 02:57:56;;;;;;;0.40;0.40;;;3.50;99.90;;;;;;4401108;32;20073;-76
2023/04/12 03:00:22;;;;;;;0.40;0.40;;;3.40;99.90;;;;;;4398975;32;20146;-77
2023/04/12 03:02:50;;;;;;;0.40;0.40;;;3.40;99.90;;;;;;4402139;32;20091;-77
2023/04/12 03:05:16;;;;;;;0.47;0.47;;;3.40;99.90;;;;;;4400360;32;20062;-78
2023/04/12 03:07:42;;;;;;;0.40;0.40;;;3.40;99.90;;;;;;4404588;32;20081;-77
2023/04/12 03:10:10;;;;;;;0.40;0.40;;;3.40;99.90;;;;;;4401963;32;20186;-77
2023/04/12 03:12:35;;;;;;;0.43;0.43;;;3.30;99.90;;;;;;4401907;32;20094;-77
2023/04/12 03:15:01;;;;;;;0.40;0.40;;;3.20;99.90;;;;;;4401324;32;20105;-77
2023/04/12 03:17:26;;;;;;;0.40;0.40;;;3.20;99.90;;;;;;4402865;32;20509;-76
2023/04/12 03:19:52;;;;;;;0.30;0.30;;;3.20;99.90;;;;;;4401467;32;20098;-77
2023/04/12 03:22:18;;;;;;;0.45;0.45;;;3.20;99.90;;;;;;4402787;32;20459;-77
2023/04/12 03:24:45;;;;;;;0.40;0.40;;;3.20;99.90;;;;;;4399986;32;20457;-77
2023/04/12 03:27:10;;;;;;;0.40;0.40;;;3.30;99.90;;;;;;4403192;32;20121;-77
2023/04/12 03:29:36;;;;;;;0.30;0.30;;;3.30;99.90;;;;;;4400992;32;20120;-76
2023/04/12 03:32:01;;;;;;;0.30;0.30;;;3.50;99.90;;;;;;4402129;32;20098;-77
2023/04/12 03:34:34;;;;;;;0.35;0.35;;;3.30;99.90;;;;;;4404353;32;20106;-76
2023/04/12 03:37:01;;;;;;;0.30;0.30;;;3.30;99.90;;;;;;4402116;32;20079;-77
2023/04/12 03:39:26;;;;;;;0.60;0.60;;;3.30;99.90;;;;;;4401328;32;20087;-77
2023/04/12 03:41:53;;;;;;;0.40;0.40;;;3.40;99.90;;;;;;4402440;32;20062;-76
2023/04/12 03:44:20;;;;;;;0.70;0.70;;;3.40;99.90;;;;;;4405245;32;20635;-76
2023/04/12 03:46:46;;;;;;;0.30;0.30;;;3.30;99.90;;;;;;4404331;32;20083;-76
2023/04/12 03:49:11;;;;;;;0.30;0.30;;;3.30;99.90;;;;;;4399147;32;20117;-76
2023/04/12 03:51:41;;;;;;;0.30;0.30;;;3.30;99.90;;;;;;4400045;32;20077;-77
2023/04/12 03:54:08;;;;;;;0.30;0.30;;;3.20;99.90;;;;;;4401667;32;20090;-77
2023/04/12 03:56:34;;;;;;;0.57;0.57;;;3.10;99.90;;;;;;4402552;32;20150;-77
2023/04/12 03:58:59;;;;;;;0.30;0.30;;;3.10;99.90;;;;;;4400368;32;20080;-76
2023/04/12 04:01:25;;;;;;;0.30;0.30;;;3.10;99.90;;;;;;4397105;32;20077;-76
2023/04/12 04:03:51;;;;;;;0.30;0.30;;;3.10;99.90;;;;;;4403609;32;20144;-78
2023/04/12 04:06:17;;;;;;;0.50;0.50;;;3.10;99.90;;;;;;4403809;32;20065;-75
2023/04/12 04:08:43;;;;;;;0.30;0.30;;;3.10;99.90;;;;;;4404321;32;20104;-77
2023/04/12 04:11:11;;;;;;;0.30;0.30;;;3.00;99.90;;;;;;4401618;32;20066;-78
2023/04/12 04:13:36;;;;;;;0.50;0.50;;;3.00;99.90;;;;;;4402563;32;20078;-78
2023/04/12 04:16:05;;;;;;;0.40;0.40;;;2.90;99.90;;;;;;4402108;32;20090;-76
2023/04/12 04:18:31;;;;;;;0.30;0.30;;;2.90;99.90;;;;;;4403407;32;20130;-77
2023/04/12 04:20:57;;;;;;;0.50;0.50;;;3.10;99.90;;;;;;4401278;32;20066;-78
2023/04/12 04:23:23;;;;;;;0.30;0.30;;;3.20;99.90;;;;;;4402894;32;20510;-75
2023/04/12 04:25:49;;;;;;;0.32;0.32;;;3.30;99.90;;;;;;4400663;32;20124;-76
2023/04/12 04:28:15;;;;;;;0.30;0.30;;;3.20;99.90;;;;;;4401847;32;20549;-76
2023/04/12 04:30:44;;;;;;;0.52;0.52;;;3.20;99.90;;;;;;4400872;32;21465;-76
2023/04/12 04:33:10;;;;;;;0.30;0.30;;;3.20;99.90;;;;;;4402722;32;20082;-76
2023/04/12 04:35:39;;;;;;;0.35;0.35;;;3.30;99.90;;;;;;4400680;32;20497;-75
2023/04/12 04:38:04;;;;;;;1.27;0.93;;;3.30;99.90;;;;;;4401779;32;20097;-75
2023/04/12 04:40:31;;;;;;;0.30;0.30;;;3.30;99.90;;;;;;4401085;32;20514;-76
2023/04/12 04:42:58;;;;;;;3.22;0.70;;;3.20;99.90;;;;;;4403657;32;20082;-75
2023/04/12 04:45:25;;;;;;;0.28;0.28;;;3.30;99.90;;;;;;4398603;32;20530;-76
2023/04/12 04:47:52;;;;;;;0.60;0.60;;;3.30;99.90;;;;;;4402630;32;20136;-76
2023/04/12 04:50:20;;;;;;;0.68;0.68;;;3.20;99.90;;;;;;4399334;32;20062;-75
2023/04/12 04:52:47;;;;;;;0.40;0.40;;;3.30;99.90;;;;;;4401842;32;20063;-77
2023/04/12 04:55:13;;;;;;;0.45;0.45;;;3.30;99.90;;;;;;4399949;32;20714;-78
2023/04/12 04:57:39;;;;;;;2.08;0.73;;;3.30;99.90;;;;;;4402523;32;20403;-78
2023/04/12 05:00:10;;;;;;;0.28;0.28;;;3.20;99.90;;;;;;4400404;32;20089;-76
2023/04/12 05:02:38;;;;;;;0.60;0.60;;;3.20;99.90;;;;;;4388779;32;20091;-76
2023/04/12 05:05:05;;;;;;;0.50;0.50;;;3.20;99.90;;;;;;4404621;32;20087;-76
2023/04/12 05:07:31;;;;;;;0.40;0.40;;;3.20;99.90;;;;;;4404951;32;20097;-76
2023/04/12 05:09:56;;;;;;;0.40;0.40;;;3.20;99.90;;;;;;4400463;32;20085;-76
2023/04/12 05:12:22;;;;;;;0.25;0.25;;;3.30;99.90;;;;;;4401268;32;20078;-76
2023/04/12 05:14:47;;;;;;;0.40;0.40;;;3.30;99.90;;;;;;4404321;32;20847;-75
2023/04/12 05:17:13;;;;;;;1.10;0.88;;;3.30;99.90;;;;;;4406373;32;20195;-76
2023/04/12 05:19:40;;;;;;;1.23;1.12;;;3.40;99.90;;;;;;4407386;32;20102;-77
2023/04/12 05:22:05;;;;;;;0.30;0.30;;;3.40;99.90;;;;;;4402329;32;20091;-76
2023/04/12 05:24:31;;;;;;;0.32;0.32;;;3.50;99.90;;;;;;4405085;32;20090;-77
2023/04/12 05:26:57;;;;;;;0.45;0.45;;;3.70;99.90;;;;;;4406863;32;20144;-76
2023/04/12 05:29:23;;;;;;;0.40;0.40;;;3.70;99.90;;;;;;4419982;32;20065;-76
2023/04/12 05:31:48;;;;;;;0.37;0.37;;;3.80;99.90;;;;;;4416639;32;20078;-75
2023/04/12 05:34:14;;;;;;;0.30;0.30;;;3.70;99.90;;;;;;4420506;32;20062;-76
2023/04/12 05:36:39;;;;;;;0.30;0.30;;;3.80;99.90;;;;;;4418322;32;20097;-76
2023/04/12 05:39:05;;;;;;;0.50;0.50;;;3.90;99.90;;;;;;4420360;32;20215;-76
2023/04/12 05:41:31;;;;;;;0.68;0.68;;;4.00;99.90;;;;;;4420266;32;20099;-76
2023/04/12 05:43:56;;;;;;;0.37;0.37;;;4.10;99.90;;;;;;4414878;32;20509;-76
2023/04/12 05:46:24;;;;;;;0.40;0.40;;;4.30;99.90;;;;;;4414736;32;20105;-75
2023/04/12 05:48:49;;;;;;;0.30;0.30;;;4.40;99.90;;;;;;4405132;32;20077;-76
2023/04/12 05:51:15;;;;;;;0.30;0.30;;;4.50;99.90;;;;;;4411150;32;20470;-76
2023/04/12 05:53:41;;;;;;;0.50;0.50;;;4.60;99.90;;;;;;4406809;32;20078;-76
2023/04/12 05:56:07;;;;;;;0.60;0.60;;;4.80;99.90;;;;;;4405473;32;20534;-76
2023/04/12 05:58:33;;;;;;;0.40;0.40;;;4.70;99.90;;;;;;4405470;32;20078;-76
2023/04/12 06:01:00;;;;;;;0.30;0.30;;;4.80;99.90;;;;;;4406761;32;20105;-76
2023/04/12 06:03:28;;;;;;;0.30;0.30;;;5.00;99.90;;;;;;4410327;32;20093;-76
2023/04/12 06:05:54;;;;;;;0.30;0.30;;;5.10;99.90;;;;;;4414617;32;20128;-76
2023/04/12 06:08:20;;;;;;;0.65;0.60;;;5.20;99.90;;;;;;4408428;32;20062;-77
2023/04/12 06:10:45;;;;;;;0.40;0.40;;;5.20;99.90;;;;;;4405770;32;20066;-77
2023/04/12 06:13:11;;;;;;;0.30;0.30;;;5.20;99.90;;;;;;4403320;32;20070;-76
2023/04/12 06:15:36;;;;;;;0.40;0.40;;;5.30;99.90;;;;;;4413042;32;20093;-77
2023/04/12 06:18:02;;;;;;;0.30;0.30;;;5.40;99.90;;;;;;4414473;32;20081;-76
2023/04/12 06:20:27;;;;;;;0.45;0.45;;;5.50;99.90;;;;;;4404767;32;20082;-76
2023/04/12 06:22:53;;;;;;;0.60;0.60;;;5.60;99.90;;;;;;4409462;32;20114;-76
2023/04/12 06:25:19;;;;;;;0.40;0.40;;;5.80;99.90;;;;;;4413272;32;20078;-77
2023/04/12 06:27:44;;;;;;;0.30;0.30;;;6.00;99.90;;;;;;4405104;32;20079;-77
2023/04/12 06:30:10;;;;;;;0.30;0.30;;;6.00;99.90;;;;;;4402010;32;20197;-76
2023/04/12 06:32:37;;;;;;;0.20;0.20;;;6.20;99.90;;;;;;4403232;32;20085;-76
2023/04/12 06:35:04;;;;;;;0.40;0.40;;;6.30;99.90;;;;;;4405450;32;20136;-76
2023/04/12 06:37:30;;;;;;;0.30;0.30;;;6.50;99.90;;;;;;4403675;32;20145;-77
2023/04/12 06:39:55;;;;;;;0.60;0.60;;;6.60;99.90;;;;;;4403622;32;20184;-76
2023/04/12 06:42:21;;;;;;;0.28;0.28;;;6.80;99.90;;;;;;4401597;32;20127;-76
2023/04/12 06:44:46;;;;;;;0.47;0.47;;;6.90;99.90;;;;;;4407132;32;20069;-76
2023/04/12 06:47:12;;;;;;;0.50;0.50;;;7.00;99.90;;;;;;4406071;32;20212;-76
2023/04/12 06:49:38;;;;;;;0.20;0.20;;;7.10;99.90;;;;;;4407044;32;20077;-76
2023/04/12 06:52:03;;;;;;;0.65;0.65;;;7.30;99.90;;;;;;4404193;32;20066;-77
2023/04/12 06:54:29;;;;;;;0.30;0.30;;;7.40;99.90;;;;;;4401499;32;20074;-77
2023/04/12 06:56:56;;;;;;;0.20;0.20;;;7.50;99.90;;;;;;4405356;32;20062;-78
2023/04/12 06:59:21;;;;;;;0.32;0.32;;;7.50;99.90;;;;;;4404405;32;20093;-76
2023/04/12 07:01:47;;;;;;;0.40;0.40;;;7.70;99.90;;;;;;4403294;32;20079;-76
2023/04/12 07:04:12;;;;;;;0.45;0.45;;;7.90;99.90;;;;;;4403648;32;20120;-76
2023/04/12 07:06:38;;;;;;;0.40;0.40;;;8.00;99.90;;;;;;4406208;32;20132;-77
2023/04/12 07:09:03;;;;;;;0.30;0.30;;;8.00;99.90;;;;;;4404175;32;20098;-77
2023/04/12 07:11:30;;;;;;;0.30;0.30;;;7.90;99.90;;;;;;4400853;32;20082;-77
2023/04/12 07:13:57;;;;;;;0.30;0.30;;;7.90;99.90;;;;;;4402412;32;20059;-76
2023/04/12 07:16:24;;;;;;;0.40;0.40;;;7.90;99.90;;;;;;4402685;32;20567;-76
2023/04/12 07:18:49;;;;;;;1.23;0.57;;;8.00;99.90;;;;;;4403459;32;20085;-77
2023/04/12 07:21:16;;;;;;;0.43;0.40;;;8.00;99.90;;;;;;4401513;32;20073;-76
2023/04/12 07:23:42;;;;;;;0.37;0.37;;;8.10;99.90;;;;;;4400018;32;20593;-76
2023/04/12 07:26:08;;;;;;;0.30;0.30;;;8.30;99.90;;;;;;4401393;32;20094;-76
2023/04/12 07:28:35;;;;;;;0.30;0.30;;;8.30;99.90;;;;;;4402680;32;20164;-76
2023/04/12 07:31:03;;;;;;;0.32;0.32;;;8.50;99.90;;;;;;4400436;32;20070;-76
2023/04/12 07:33:29;;;;;;;0.50;0.50;;;8.60;99.90;;;;;;4410177;32;20129;-76
2023/04/12 07:35:55;;;;;;;0.20;0.20;;;8.80;99.90;;;;;;4408689;32;20521;-76
2023/04/12 07:38:20;;;;;;;0.30;0.30;;;8.70;99.90;;;;;;4400263;32;20070;-77
2023/04/12 07:40:46;;;;;;;0.35;0.35;;;8.70;99.90;;;;;;4402544;32;20090;-77
2023/04/12 07:43:11;;;;;;;0.40;0.40;;;8.80;99.90;;;;;;4399932;32;20181;-77
2023/04/12 07:45:37;;;;;;;0.40;0.40;;;8.80;99.90;;;;;;4402102;32;20075;-76
2023/04/12 07:48:03;;;;;;;1.20;0.60;;;9.00;99.90;;;;;;4403945;32;20078;-77
2023/04/12 07:50:28;;;;;;;0.73;0.47;;;9.30;99.90;;;;;;4401447;32;20517;-77
2023/04/12 07:53:15;;;;;;;0.37;0.37;;;9.30;99.90;;;;;;4399889;32;20137;-77
2023/04/12 07:55:41;;;;;;;0.30;0.30;;;9.40;99.90;;;;;;4404670;32;20081;-77
2023/04/12 07:58:06;;;;;;;0.80;0.50;;;9.60;99.90;;;;;;4402111;32;20145;-77
2023/04/12 08:00:33;;;;;;;0.30;0.30;;;9.80;99.90;;;;;;4402535;32;20091;-77
2023/04/12 08:02:59;;;;;;;0.32;0.32;;;9.80;99.90;;;;;;4401722;32;20086;-77
2023/04/12 08:05:24;;;;;;;0.30;0.30;;;10.00;99.90;;;;;;4405613;32;20086;-77
2023/04/12 08:07:49;;;;;;;0.50;0.50;;;10.00;99.90;;;;;;4402953;32;20070;-77
2023/04/12 08:10:15;;;;;;;1.45;0.70;;;10.20;99.90;;;;;;4399499;32;20070;-77
2023/04/12 08:12:41;;;;;;;0.30;0.30;;;10.10;99.90;;;;;;4403221;32;20081;-77
2023/04/12 08:15:07;;;;;;;0.30;0.30;;;10.20;99.90;;;;;;4402407;32;20082;-77
2023/04/12 08:17:32;;;;;;;0.30;0.30;;;10.30;99.90;;;;;;4403072;32;20094;-77
2023/04/12 08:19:57;;;;;;;0.30;0.30;;;10.50;99.90;;;;;;4402631;32;20102;-77
2023/04/12 08:22:23;;;;;;;1.02;0.93;;;10.60;99.90;;;;;;4401482;32;20136;-78
2023/04/12 08:24:48;;;;;;;0.55;0.55;;;10.70;99.90;;;;;;4401669;32;20078;-78
2023/04/12 08:27:15;;;;;;;0.37;0.37;;;10.70;99.90;;;;;;4401989;32;20074;-77
2023/04/12 08:29:40;;;;;;;0.30;0.30;;;10.70;99.90;;;;;;4400995;32;20126;-77
2023/04/12 08:32:08;;;;;;;0.80;0.80;;;10.80;99.90;;;;;;4399057;32;20093;-77
2023/04/12 08:34:34;;;;;;;0.37;0.37;;;11.00;99.90;;;;;;4400055;32;20066;-78
2023/04/12 08:36:59;;;;;;;0.30;0.30;;;11.00;99.90;;;;;;4401538;32;20093;-77
2023/04/12 08:39:25;;;;;;;0.25;0.25;;;11.20;99.90;;;;;;4404747;32;20644;-77
2023/04/12 08:41:53;;;;;;;0.43;0.43;;;11.20;99.90;;;;;;4404941;32;20619;-77
2023/04/12 08:44:25;;;;;;;0.57;0.57;;;11.30;99.90;;;;;;4404285;32;20073;-77
2023/04/12 08:46:51;;;;;;;0.30;0.30;;;11.30;99.90;;;;;;4405748;32;20133;-77
2023/04/12 08:49:17;;;;;;;0.65;0.40;;;11.50;99.90;;;;;;4407440;32;20065;-78
2023/04/12 08:51:43;;;;;;;0.30;0.30;;;11.50;99.90;;;;;;4405387;32;20058;-77
2023/04/12 08:54:09;;;;;;;0.30;0.30;;;11.60;99.90;;;;;;4403469;32;20121;-79
2023/04/12 08:56:35;;;;;;;0.30;0.30;;;11.70;99.90;;;;;;4402355;32;20109;-77
2023/04/12 08:59:01;;;;;;;1.90;0.68;;;11.80;99.90;;;;;;4404323;32;20082;-78
2023/04/12 09:01:27;;;;;;;0.73;0.50;;;11.80;99.90;;;;;;4402685;32;20164;-78
2023/04/12 09:03:52;;;;;;;0.37;0.37;;;11.90;99.90;;;;;;4404071;32;20125;-77
2023/04/12 09:06:18;;;;;;;0.45;0.45;;;12.00;99.90;;;;;;4404696;32;20078;-78
2023/04/12 09:08:52;;;;;;;0.20;0.20;;;12.10;99.90;;;;;;4403156;32;20066;-77
2023/04/12 09:11:24;;;;;;;0.30;0.30;;;12.20;99.90;;;;;;4404219;32;20580;-78
2023/04/12 09:13:51;;;;;;;0.30;0.30;;;12.20;99.90;;;;;;4403600;32;20116;-77
2023/04/12 09:16:18;;;;;;;0.35;0.35;;;12.50;99.90;;;;;;4408898;32;20147;-77
2023/04/12 09:18:49;;;;;;;0.30;0.30;;;12.50;99.90;;;;;;4403978;32;20073;-78
2023/04/12 09:21:14;;;;;;;0.60;0.60;;;12.80;99.90;;;;;;4404615;32;20128;-78
2023/04/12 09:23:40;;;;;;;0.30;0.30;;;12.90;99.90;;;;;;4404484;32;20058;-78
2023/04/12 09:26:07;;;;;;;0.70;0.70;;;13.10;99.90;;;;;;4405269;32;20124;-78
2023/04/12 09:28:32;;;;;;;9.95;0.60;;;13.00;99.90;;;;;;4407197;32;20140;-78
2023/04/12 09:30:59;;;;;;;0.30;0.30;;;13.00;99.80;;;;;;4405981;32;20577;-78
2023/04/12 09:33:35;;;;;;;0.30;0.30;;;13.00;99.70;;;;;;4390590;32;20089;-77
2023/04/12 09:36:04;;;;;;;1.48;0.70;;;13.00;99.90;;;;;;4407144;32;20058;-78
2023/04/12 09:38:31;;;;;;;0.40;0.40;;;13.40;99.30;;;;;;4407211;32;20069;-78
2023/04/12 09:41:00;;;;;;;2.33;0.55;;;13.70;99.00;;;;;;4391383;32;20098;-77
2023/04/12 09:43:41;;;;;;;0.30;0.30;;;13.80;96.70;;;;;;4400995;32;20145;-78
2023/04/12 09:46:12;;;;;;;0.50;0.50;;;13.90;96.50;;;;;;4399833;32;20089;-77
2023/04/12 09:48:39;;;;;;;10.48;0.55;;;14.10;95.70;;;;;;4404095;32;20061;-77
2023/04/12 09:51:06;;;;;;;0.60;0.60;;;14.20;95.20;;;;;;4404315;32;20066;-77
2023/04/12 09:53:34;;;;;;;0.55;0.55;;;14.30;94.90;;;;;;4403911;32;20066;-77
2023/04/12 09:56:02;;;;;;;0.50;0.50;;;14.50;94.70;;;;;;4404180;32;20069;-77
2023/04/12 09:58:30;;;;;;;1.85;0.77;;;14.70;94.50;;;;;;4404456;32;20073;-78
2023/04/12 10:00:58;;;;;;;11.85;0.50;;;14.80;94.40;;;;;;4402762;32;20552;-78
2023/04/12 10:03:24;;;;;;;0.40;0.40;;;14.70;94.10;;;;;;4402051;32;20158;-77
2023/04/12 10:05:50;;;;;;;3.50;0.57;;;14.60;93.60;;;;;;4407380;32;20070;-77
2023/04/12 10:08:16;;;;;;;0.40;0.40;;;14.80;93.30;;;;;;4406005;32;20419;-77
2023/04/12 10:10:44;;;;;;;0.40;0.40;;;15.00;92.80;;;;;;4401926;32;20098;-77
2023/04/12 10:13:11;;;;;;;0.40;0.40;;;15.40;92.50;;;;;;4402426;32;20074;-77
2023/04/12 10:15:38;;;;;;;1.50;0.65;;;15.70;91.00;;;;;;4405160;32;20161;-77
2023/04/12 10:18:05;;;;;;;0.30;0.30;;;15.80;91.20;;;;;;4403532;32;20520;-77
2023/04/12 10:20:31;;;;;;;0.62;0.40;;;15.60;90.60;;;;;;4404358;32;20086;-77
2023/04/12 10:22:58;;;;;;;0.65;0.47;;;15.50;90.40;;;;;;4403148;32;20116;-77
2023/04/12 10:25:26;;;;;;;0.75;0.75;;;15.70;90.40;;;;;;4404893;32;20065;-77
2023/04/12 10:27:52;;;;;;;0.37;0.37;;;15.70;91.40;;;;;;4402443;32;20085;-77
2023/04/12 10:30:19;;;;;;;0.40;0.40;;;15.90;90.50;;;;;;4404475;32;20129;-76
2023/04/12 10:32:45;;;;;;;0.40;0.40;;;16.20;90.00;;;;;;4404067;32;20077;-77
2023/04/12 10:35:11;;;;;;;0.70;0.70;;;16.20;89.50;;;;;;4402718;32;20078;-76
2023/04/12 10:37:58;;;;;;;0.37;0.37;;;16.30;88.20;;;;;;4403706;32;20080;-76
2023/04/12 10:40:24;;;;;;;0.22;0.22;;;16.40;86.60;;;;;;4392689;32;20149;-76
2023/04/12 10:43:26;;;;;;;9.95;0.60;;;16.50;86.80;;;;;;4403415;32;20081;-77
2023/04/12 10:45:51;;;;;;;0.45;0.45;;;16.60;87.30;;;;;;4389841;32;20086;-77
2023/04/12 10:48:35;;;;;;;0.45;0.45;;;17.00;85.70;;;;;;4404136;32;20097;-78
2023/04/12 10:51:24;;;;;;;0.37;0.37;;;16.40;86.40;;;;;;4400558;32;20174;-76
2023/04/12 10:53:50;;;;;;;0.35;0.35;;;16.80;86.00;;;;;;4395665;32;20500;-77
2023/04/12 10:56:35;;;;;;;1.77;0.37;;;17.30;85.70;;;;;;4404487;32;20069;-77
2023/04/12 10:59:02;;;;;;;0.30;0.30;;;17.60;84.50;;;;;;4403922;32;20090;-77
2023/04/12 11:01:29;;;;;;;0.37;0.37;;;17.20;83.40;;;;;;4404534;32;20124;-77
2023/04/12 11:04:12;;;;;;;1.12;1.02;;;17.10;84.90;;;;;;4403511;32;20085;-76
2023/04/12 11:06:45;;;;;;;0.40;0.40;;;17.60;82.90;;;;;;4390972;32;20097;-77
2023/04/12 11:09:29;;;;;;;0.30;0.30;;;17.20;83.20;;;;;;4403310;32;20090;-77
2023/04/12 11:12:11;;;;;;;0.98;0.65;;;17.50;81.40;;;;;;4404630;32;20522;-77
2023/04/12 11:14:41;;;;;;;0.37;0.37;;;17.20;80.60;;;;;;4392594;32;20094;-77
2023/04/12 11:17:09;;;;;;;7.90;0.85;;;16.90;81.10;;;;;;4401590;32;20073;-78
2023/04/12 11:19:38;;;;;;;4.85;1.40;;;17.20;80.60;;;;;;4389175;32;20086;-76
2023/04/12 11:22:05;;;;;;;0.32;0.32;;;17.60;81.70;;;;;;4403741;32;20074;-77
2023/04/12 11:24:31;;;;;;;0.45;0.45;;;17.90;79.20;;;;;;4403260;32;20074;-78
2023/04/12 11:26:58;;;;;;;0.40;0.40;;;18.10;79.40;;;;;;4402895;32;20083;-78
2023/04/12 11:29:24;;;;;;;5.68;0.85;;;18.10;78.90;;;;;;4404907;32;20070;-78
2023/04/12 11:31:50;;;;;;;0.37;0.37;;;18.60;78.90;;;;;;4404853;32;20477;-77
2023/04/12 11:34:18;;;;;;;2.15;1.20;;;18.60;75.40;;;;;;4404394;32;20091;-78
2023/04/12 11:36:45;;;;;;;0.40;0.40;;;18.20;74.90;;;;;;4403210;32;20073;-77
2023/04/12 11:39:11;;;;;;;0.43;0.43;;;18.50;74.30;;;;;;4403144;32;20081;-77
2023/04/12 11:41:37;;;;;;;0.40;0.40;;;18.40;75.30;;;;;;4405451;32;20061;-77
2023/04/12 11:44:02;;;;;;;0.75;0.75;;;18.60;75.70;;;;;;4401850;32;125995;-78
2023/04/12 11:46:35;;;;;;;0.30;0.30;;;19.10;73.90;;;;;;4399886;32;20574;-78
2023/04/12 11:49:01;;;;;;;0.60;0.60;;;18.90;72.80;;;;;;4404325;32;20055;-78
2023/04/12 11:51:28;;;;;;;0.30;0.30;;;19.00;73.70;;;;;;4402606;32;20057;-77
2023/04/12 11:53:55;;;;;;;0.30;0.30;;;19.00;71.80;;;;;;4404514;32;20141;-77
2023/04/12 11:56:21;;;;;;;0.30;0.30;;;18.20;72.80;;;;;;4403378;32;20069;-77
2023/04/12 11:58:47;;;;;;;0.30;0.30;;;18.00;74.80;;;;;;4401984;32;20088;-77
2023/04/12 12:01:16;;;;;;;0.40;0.40;;;18.40;73.80;;;;;;4401440;32;20091;-77
2023/04/12 12:03:42;;;;;;;0.50;0.50;;;18.40;72.60;;;;;;4401737;32;20078;-77
2023/04/12 12:06:08;;;;;;;0.47;0.47;;;17.50;74.50;;;;;;4406024;32;20124;-77
2023/04/12 12:08:34;;;;;;;0.30;0.30;;;17.40;75.00;;;;;;4403288;32;20132;-77
2023/04/12 12:11:00;;;;;;;0.65;0.60;;;17.30;75.80;;;;;;4402970;32;20143;-77
2023/04/12 12:13:26;;;;;;;0.52;0.52;;;17.20;76.80;;;;;;4404167;32;20504;-77
2023/04/12 12:15:51;;;;;;;0.30;0.30;;;17.20;75.50;;;;;;4400900;32;20522;-77
2023/04/12 12:18:17;;;;;;;0.55;0.55;;;17.10;76.30;;;;;;4401671;32;20533;-77
2023/04/12 12:20:50;;;;;;;0.40;0.40;;;17.10;76.70;;;;;;4402222;32;20066;-77
2023/04/12 12:23:32;;;;;;;0.30;0.30;;;17.40;77.20;;;;;;4402517;32;20066;-77
2023/04/12 12:25:59;;;;;;;0.20;0.20;;;17.50;74.20;;;;;;4402863;32;21054;-77
2023/04/12 12:28:25;;;;;;;0.30;0.30;;;17.10;75.00;;;;;;4402023;32;20821;-76
2023/04/12 12:30:55;;;;;;;1.00;0.50;;;17.20;76.20;;;;;;4403335;32;20134;-77
2023/04/12 12:33:21;;;;;;;0.40;0.40;;;17.30;76.00;;;;;;4402435;32;20070;-77
2023/04/12 12:35:47;;;;;;;0.40;0.40;;;17.10;76.40;;;;;;4404140;32;20216;-78
2023/04/12 12:38:12;;;;;;;0.40;0.40;;;17.00;76.50;;;;;;4400229;32;20082;-77
2023/04/12 12:40:38;;;;;;;0.40;0.40;;;16.70;76.80;;;;;;4404572;32;20058;-77
2023/04/12 12:43:05;;;;;;;0.30;0.30;;;16.50;77.10;;;;;;4400220;32;20077;-77
2023/04/12 12:45:32;;;;;;;0.50;0.50;;;16.50;78.20;;;;;;4400079;32;20166;-77
2023/04/12 12:48:01;;;;;;;0.30;0.30;;;16.50;78.10;;;;;;4404912;32;20086;-78
2023/04/12 12:50:29;;;;;;;0.40;0.40;;;16.40;77.90;;;;;;4399548;32;20098;-77
2023/04/12 12:52:57;;;;;;;4.37;1.05;;;16.50;78.80;;;;;;4401641;32;20127;-77
2023/04/12 12:55:23;;;;;;;0.30;0.30;;;16.50;77.80;;;;;;4399310;32;20074;-77